Etusivu
METAR-TAF:

METAR-TAF

Lentoasemat :

Montpellier, Ranska

Leveyspiiri: 43-35N, Pituuspiiri: 003-58E, korkeus merenpinnasta: 5 m

Tämänhetkinen sää

Tämä raportti tehtiin 35 minuuttia sitten, kello 18.00 UTC
Tuuli 10 kn lännestä
Lämpötila 12°C
Kosteus 54%
Ilmanpaine 1006 hPa
Näkyvyys 10 km tai enemmän
ei pilviä alle 1500 m:ssä eikä cumulonimbus-pilviä

METAR: LFMT 121800Z AUTO 28010KT CAVOK 12/03 Q1006 NOSIG

Aika: 19:35 (18:35 UTC)

Sääennuste

Tämä raportti tehtiin 10 tuntia ja 35 minuuttia sitten, kello 08.00 UTC
Ennuste voimassa 12. päivästä klo 09 UTC - 13. päivään klo 09 UTC
Tuuli 12 kn lännestä/luoteesta
Näkyvyys 10 km tai enemmän
ei pilviä alle 1500 m:ssä eikä cumulonimbus-pilviä
Ajoittain
12. päivästä klo 13 UTC - 12. päivään klo 19 UTC
Tuuli 15 kn luoteesta puuskistuen 26 kn:hen
Tulossa
12. päivästä klo 23 UTC - 13. päivään klo 02 UTC
Tuuli 5 kn lännestä

TAF: LFMT 120800Z 1209/1309 30012KT CAVOK TEMPO 1213/1219 32015G26KT BECMG 1223/1302 27005KT

Säähavainnot ja -ennusteet yli 4000 lentoasemalta (METAR- ja TAF-raportit).

Käytössä olevat sääasemat on merkitty karttaan keltaisilla ja punaisilla pisteillä.

Aseta hiiri pisteen päälle nähdäksesi sääaseman nimen.

Klikkaa sitten nähdäksesi säähavainnot ja -ennusteet.

Kartan vaihtaminen: klikkaa mustalla rastilla varustettuja vihreitä pisteitä, niin voit zoomata sisään; viivalla varustettua vihreää pistettä, niin voit zoomata ulos tai vihreitä nuolia, niin pääset viereisille kartoille.


METAR-TAF: